sensor_id;sensor_type;location;lat;lon;timestamp;pressure;altitude;pressure_sealevel;temperature;humidity
46506;BME280;32220;49.808;9.968;2022-08-01T00:00:12;98766.63;;;23.98;46.70
46506;BME280;32220;49.808;9.968;2022-08-01T00:02:40;98769.16;;;24.00;46.27
46506;BME280;32220;49.808;9.968;2022-08-01T00:05:08;98761.22;;;23.98;46.56
46506;BME280;32220;49.808;9.968;2022-08-01T00:07:36;98759.16;;;24.00;46.30
46506;BME280;32220;49.808;9.968;2022-08-01T00:10:06;98765.41;;;24.01;46.53
46506;BME280;32220;49.808;9.968;2022-08-01T00:12:35;98758.06;;;23.95;46.55
46506;BME280;32220;49.808;9.968;2022-08-01T00:15:04;98762.88;;;23.99;46.76
46506;BME280;32220;49.808;9.968;2022-08-01T00:17:32;98772.03;;;23.98;46.21
46506;BME280;32220;49.808;9.968;2022-08-01T00:20:00;98761.88;;;24.00;46.89
46506;BME280;32220;49.808;9.968;2022-08-01T00:22:30;98770.16;;;23.99;46.91
46506;BME280;32220;49.808;9.968;2022-08-01T00:24:57;98767.84;;;23.96;47.00
46506;BME280;32220;49.808;9.968;2022-08-01T00:27:25;98768.22;;;23.93;46.99
46506;BME280;32220;49.808;9.968;2022-08-01T00:29:54;98763.34;;;23.88;47.32
46506;BME280;32220;49.808;9.968;2022-08-01T00:32:22;98770.16;;;23.84;47.15
46506;BME280;32220;49.808;9.968;2022-08-01T00:34:50;98770.03;;;23.78;47.46
46506;BME280;32220;49.808;9.968;2022-08-01T00:37:18;98766.19;;;23.72;47.24
46506;BME280;32220;49.808;9.968;2022-08-01T00:39:45;98766.91;;;23.66;47.66
46506;BME280;32220;49.808;9.968;2022-08-01T00:42:13;98771.38;;;23.59;47.65
46506;BME280;32220;49.808;9.968;2022-08-01T00:44:40;98768.34;;;23.54;47.93
46506;BME280;32220;49.808;9.968;2022-08-01T00:47:09;98765.34;;;23.49;48.14
46506;BME280;32220;49.808;9.968;2022-08-01T00:49:37;98773.13;;;23.44;48.28
46506;BME280;32220;49.808;9.968;2022-08-01T00:52:05;98771.81;;;23.40;48.37
46506;BME280;32220;49.808;9.968;2022-08-01T00:54:33;98775.22;;;23.34;48.65
46506;BME280;32220;49.808;9.968;2022-08-01T00:57:02;98764.94;;;23.29;48.84
46506;BME280;32220;49.808;9.968;2022-08-01T00:59:30;98766.19;;;23.18;48.80
46506;BME280;32220;49.808;9.968;2022-08-01T01:01:58;98776.84;;;23.20;48.87
46506;BME280;32220;49.808;9.968;2022-08-01T01:04:27;98767.28;;;23.09;49.33
46506;BME280;32220;49.808;9.968;2022-08-01T01:06:59;98770.50;;;23.05;49.51
46506;BME280;32220;49.808;9.968;2022-08-01T01:09:35;98773.53;;;23.02;49.19
46506;BME280;32220;49.808;9.968;2022-08-01T01:12:15;98781.53;;;22.95;49.58
46506;BME280;32220;49.808;9.968;2022-08-01T01:14:52;98774.50;;;22.86;49.34
46506;BME280;32220;49.808;9.968;2022-08-01T01:17:24;98789.00;;;22.85;49.29
46506;BME280;32220;49.808;9.968;2022-08-01T01:19:57;98780.56;;;22.80;49.41
46506;BME280;32220;49.808;9.968;2022-08-01T01:22:55;98777.88;;;22.72;49.74
46506;BME280;32220;49.808;9.968;2022-08-01T01:25:46;98782.97;;;22.67;49.95
46506;BME280;32220;49.808;9.968;2022-08-01T01:28:27;98774.91;;;22.58;49.95
46506;BME280;32220;49.808;9.968;2022-08-01T01:30:59;98773.72;;;22.53;50.29
46506;BME280;32220;49.808;9.968;2022-08-01T01:33:29;98774.25;;;22.48;50.40
46506;BME280;32220;49.808;9.968;2022-08-01T01:36:01;98780.34;;;22.42;50.59
46506;BME280;32220;49.808;9.968;2022-08-01T01:38:33;98781.69;;;22.38;50.81
46506;BME280;32220;49.808;9.968;2022-08-01T01:41:03;98781.22;;;22.35;51.03
46506;BME280;32220;49.808;9.968;2022-08-01T01:43:32;98782.41;;;22.32;51.54
46506;BME280;32220;49.808;9.968;2022-08-01T01:46:03;98779.34;;;22.27;51.46
46506;BME280;32220;49.808;9.968;2022-08-01T01:48:33;98785.13;;;22.24;51.48
46506;BME280;32220;49.808;9.968;2022-08-01T01:51:01;98781.06;;;22.20;51.67
46506;BME280;32220;49.808;9.968;2022-08-01T01:53:32;98784.09;;;22.17;51.83
46506;BME280;32220;49.808;9.968;2022-08-01T01:56:01;98789.00;;;22.13;51.64
46506;BME280;32220;49.808;9.968;2022-08-01T01:58:32;98785.13;;;22.08;52.10
46506;BME280;32220;49.808;9.968;2022-08-01T02:01:02;98785.63;;;22.03;51.85
46506;BME280;32220;49.808;9.968;2022-08-01T02:03:31;98790.34;;;22.01;52.22
46506;BME280;32220;49.808;9.968;2022-08-01T02:06:03;98748.72;;;21.71;52.20
46506;BME280;32220;49.808;9.968;2022-08-01T02:08:32;98796.56;;;21.94;52.32
46506;BME280;32220;49.808;9.968;2022-08-01T02:11:02;98799.59;;;21.91;52.68
46506;BME280;32220;49.808;9.968;2022-08-01T02:13:53;98795.75;;;21.85;52.58
46506;BME280;32220;49.808;9.968;2022-08-01T02:16:26;98796.06;;;21.82;52.56
46506;BME280;32220;49.808;9.968;2022-08-01T02:18:56;98793.88;;;21.77;52.65
46506;BME280;32220;49.808;9.968;2022-08-01T02:21:29;98798.94;;;21.72;52.76
46506;BME280;32220;49.808;9.968;2022-08-01T02:24:01;98800.28;;;21.68;53.27
46506;BME280;32220;49.808;9.968;2022-08-01T02:26:30;98804.31;;;21.64;53.81
46506;BME280;32220;49.808;9.968;2022-08-01T02:29:01;98804.66;;;21.61;54.17
46506;BME280;32220;49.808;9.968;2022-08-01T02:31:34;98800.44;;;21.59;54.44
46506;BME280;32220;49.808;9.968;2022-08-01T02:34:05;98798.91;;;21.56;54.25
46506;BME280;32220;49.808;9.968;2022-08-01T02:36:35;98799.75;;;21.57;54.76
46506;BME280;32220;49.808;9.968;2022-08-01T02:39:08;98796.38;;;21.55;55.17
46506;BME280;32220;49.808;9.968;2022-08-01T02:41:40;98788.13;;;21.56;55.46
46506;BME280;32220;49.808;9.968;2022-08-01T02:44:10;98790.16;;;21.54;56.02
46506;BME280;32220;49.808;9.968;2022-08-01T02:46:43;98786.97;;;21.50;56.04
46506;BME280;32220;49.808;9.968;2022-08-01T02:49:13;98789.47;;;21.52;55.63
46506;BME280;32220;49.808;9.968;2022-08-01T02:51:44;98796.91;;;21.50;55.94
46506;BME280;32220;49.808;9.968;2022-08-01T02:54:15;98800.59;;;21.49;55.48
46506;BME280;32220;49.808;9.968;2022-08-01T02:56:46;98802.63;;;21.47;55.90
46506;BME280;32220;49.808;9.968;2022-08-01T02:59:18;98812.72;;;21.45;55.68
46506;BME280;32220;49.808;9.968;2022-08-01T03:01:47;98810.34;;;21.42;55.83
46506;BME280;32220;49.808;9.968;2022-08-01T03:04:18;98819.44;;;21.41;56.33
46506;BME280;32220;49.808;9.968;2022-08-01T03:06:48;98821.13;;;21.42;56.24
46506;BME280;32220;49.808;9.968;2022-08-01T03:09:16;98821.47;;;21.47;56.20
46506;BME280;32220;49.808;9.968;2022-08-01T03:11:46;98822.16;;;21.49;56.01
46506;BME280;32220;49.808;9.968;2022-08-01T03:14:15;98819.47;;;21.49;56.01
46506;BME280;32220;49.808;9.968;2022-08-01T03:16:47;98825.34;;;21.52;56.31
46506;BME280;32220;49.808;9.968;2022-08-01T03:19:15;98822.50;;;21.54;56.66
46506;BME280;32220;49.808;9.968;2022-08-01T03:21:46;98820.31;;;21.58;56.54
46506;BME280;32220;49.808;9.968;2022-08-01T03:24:16;98816.09;;;21.55;56.45
46506;BME280;32220;49.808;9.968;2022-08-01T03:26:46;98819.47;;;21.65;56.45
46506;BME280;32220;49.808;9.968;2022-08-01T03:29:21;98823.84;;;21.66;56.38
46506;BME280;32220;49.808;9.968;2022-08-01T03:31:52;98828.56;;;21.64;56.28
46506;BME280;32220;49.808;9.968;2022-08-01T03:34:21;98827.06;;;21.62;56.70
46506;BME280;32220;49.808;9.968;2022-08-01T03:36:55;98833.63;;;21.59;56.54
46506;BME280;32220;49.808;9.968;2022-08-01T03:39:28;98833.63;;;21.59;56.81
46506;BME280;32220;49.808;9.968;2022-08-01T03:42:00;98834.47;;;21.60;56.44
46506;BME280;32220;49.808;9.968;2022-08-01T03:44:31;98839.03;;;21.59;56.85
46506;BME280;32220;49.808;9.968;2022-08-01T03:47:05;98837.31;;;21.58;56.85
46506;BME280;32220;49.808;9.968;2022-08-01T03:49:38;98840.19;;;21.57;57.40
46506;BME280;32220;49.808;9.968;2022-08-01T03:52:08;98835.63;;;21.57;57.41
46506;BME280;32220;49.808;9.968;2022-08-01T03:54:40;98833.94;;;21.56;57.16
46506;BME280;32220;49.808;9.968;2022-08-01T03:57:09;98838.50;;;21.56;57.31
46506;BME280;32220;49.808;9.968;2022-08-01T03:59:38;98837.66;;;21.55;57.16
46506;BME280;32220;49.808;9.968;2022-08-01T04:02:07;98829.72;;;21.54;57.35
46506;BME280;32220;49.808;9.968;2022-08-01T04:04:36;98816.56;;;21.42;57.41
46506;BME280;32220;49.808;9.968;2022-08-01T04:07:04;98841.72;;;21.51;57.52
46506;BME280;32220;49.808;9.968;2022-08-01T04:09:33;98841.72;;;21.51;57.07
46506;BME280;32220;49.808;9.968;2022-08-01T04:12:01;98839.19;;;21.49;57.46
46506;BME280;32220;49.808;9.968;2022-08-01T04:14:28;98842.53;;;21.51;57.47
46506;BME280;32220;49.808;9.968;2022-08-01T04:16:56;98849.09;;;21.49;57.62
46506;BME280;32220;49.808;9.968;2022-08-01T04:19:25;98850.13;;;21.48;57.66
46506;BME280;32220;49.808;9.968;2022-08-01T04:21:53;98851.13;;;21.47;57.81
46506;BME280;32220;49.808;9.968;2022-08-01T04:24:22;98850.13;;;21.48;57.69
46506;BME280;32220;49.808;9.968;2022-08-01T04:26:52;98852.81;;;21.48;57.64
46506;BME280;32220;49.808;9.968;2022-08-01T04:29:20;98856.34;;;21.48;57.44
46506;BME280;32220;49.808;9.968;2022-08-01T04:31:50;98853.50;;;21.50;57.62
46506;BME280;32220;49.808;9.968;2022-08-01T04:34:22;98846.56;;;21.47;57.69
46506;BME280;32220;49.808;9.968;2022-08-01T04:36:55;98853.50;;;21.58;57.96
46506;BME280;32220;49.808;9.968;2022-08-01T04:39:24;98854.88;;;21.62;57.74
46506;BME280;32220;49.808;9.968;2022-08-01T04:41:55;98859.56;;;21.68;57.78
46506;BME280;32220;49.808;9.968;2022-08-01T04:44:23;98859.56;;;21.76;57.73
46506;BME280;32220;49.808;9.968;2022-08-01T04:46:54;98865.31;;;21.81;57.57
46506;BME280;32220;49.808;9.968;2022-08-01T04:49:24;98856.38;;;21.89;57.04
46506;BME280;32220;49.808;9.968;2022-08-01T04:51:55;98857.59;;;21.95;57.25
46506;BME280;32220;49.808;9.968;2022-08-01T04:54:24;98862.69;;;22.06;57.06
46506;BME280;32220;49.808;9.968;2022-08-01T04:56:52;98866.88;;;22.16;57.11
46506;BME280;32220;49.808;9.968;2022-08-01T04:59:21;98866.88;;;22.33;57.08
46506;BME280;32220;49.808;9.968;2022-08-01T05:02:08;98872.41;;;22.55;57.04
46506;BME280;32220;49.808;9.968;2022-08-01T05:04:37;98871.38;;;22.73;56.39
46506;BME280;32220;49.808;9.968;2022-08-01T05:07:07;98873.03;;;22.90;56.75
46506;BME280;32220;49.808;9.968;2022-08-01T05:09:35;98872.66;;;23.01;56.30
46506;BME280;32220;49.808;9.968;2022-08-01T05:12:05;98878.34;;;23.14;56.41
46506;BME280;32220;49.808;9.968;2022-08-01T05:14:33;98871.22;;;23.21;56.63
46506;BME280;32220;49.808;9.968;2022-08-01T05:17:02;98869.31;;;23.30;56.31
46506;BME280;32220;49.808;9.968;2022-08-01T05:19:31;98872.19;;;23.37;56.13
46506;BME280;32220;49.808;9.968;2022-08-01T05:21:59;98879.22;;;23.46;55.81
46506;BME280;32220;49.808;9.968;2022-08-01T05:24:29;98867.38;;;23.47;55.55
46506;BME280;32220;49.808;9.968;2022-08-01T05:26:58;98875.59;;;23.61;55.77
46506;BME280;32220;49.808;9.968;2022-08-01T05:29:27;98890.59;;;23.72;55.46
46506;BME280;32220;49.808;9.968;2022-08-01T05:31:54;98884.47;;;23.78;55.33
46506;BME280;32220;49.808;9.968;2022-08-01T05:34:22;98889.16;;;23.84;55.00
46506;BME280;32220;49.808;9.968;2022-08-01T05:36:50;98892.16;;;23.89;55.07
46506;BME280;32220;49.808;9.968;2022-08-01T05:39:18;98886.03;;;23.95;54.93
46506;BME280;32220;49.808;9.968;2022-08-01T05:41:47;98881.56;;;24.03;54.67
46506;BME280;32220;49.808;9.968;2022-08-01T05:44:15;98879.19;;;24.08;54.69
46506;BME280;32220;49.808;9.968;2022-08-01T05:46:43;98887.97;;;24.10;54.81
46506;BME280;32220;49.808;9.968;2022-08-01T05:49:10;98889.94;;;24.16;54.81
46506;BME280;32220;49.808;9.968;2022-08-01T05:51:38;98887.88;;;24.18;54.71
46506;BME280;32220;49.808;9.968;2022-08-01T05:54:06;98890.59;;;24.18;54.33
46506;BME280;32220;49.808;9.968;2022-08-01T05:56:33;98887.88;;;24.18;54.62
46506;BME280;32220;49.808;9.968;2022-08-01T05:59:03;98866.94;;;24.12;54.65
46506;BME280;32220;49.808;9.968;2022-08-01T06:01:30;98894.59;;;24.30;54.30
46506;BME280;32220;49.808;9.968;2022-08-01T06:03:58;98891.44;;;24.41;54.47
46506;BME280;32220;49.808;9.968;2022-08-01T06:06:26;98895.75;;;24.50;54.42
46506;BME280;32220;49.808;9.968;2022-08-01T06:08:53;98882.50;;;24.55;54.29
46506;BME280;32220;49.808;9.968;2022-08-01T06:11:21;98894.97;;;24.79;53.72
46506;BME280;32220;49.808;9.968;2022-08-01T06:13:49;98902.94;;;24.95;53.08
46506;BME280;32220;49.808;9.968;2022-08-01T06:16:18;98899.97;;;25.05;53.46
46506;BME280;32220;49.808;9.968;2022-08-01T06:18:46;98906.31;;;25.12;53.08
46506;BME280;32220;49.808;9.968;2022-08-01T06:21:14;98908.53;;;25.23;52.96
46506;BME280;32220;49.808;9.968;2022-08-01T06:23:41;98904.31;;;25.35;52.89
46506;BME280;32220;49.808;9.968;2022-08-01T06:26:09;98900.84;;;25.56;52.56
46506;BME280;32220;49.808;9.968;2022-08-01T06:28:37;98912.22;;;25.81;51.97
46506;BME280;32220;49.808;9.968;2022-08-01T06:31:05;98909.72;;;26.01;51.17
46506;BME280;32220;49.808;9.968;2022-08-01T06:33:34;98908.81;;;26.15;50.58
46506;BME280;32220;49.808;9.968;2022-08-01T06:36:03;98920.53;;;26.37;49.63
46506;BME280;32220;49.808;9.968;2022-08-01T06:38:31;98924.16;;;26.44;49.58
46506;BME280;32220;49.808;9.968;2022-08-01T06:40:59;98928.69;;;26.37;49.80
46506;BME280;32220;49.808;9.968;2022-08-01T06:43:26;98925.38;;;26.41;50.03
46506;BME280;32220;49.808;9.968;2022-08-01T06:45:54;98931.16;;;26.60;49.59
46506;BME280;32220;49.808;9.968;2022-08-01T06:48:22;98934.09;;;26.86;48.74
46506;BME280;32220;49.808;9.968;2022-08-01T06:50:51;98937.00;;;27.06;48.67
46506;BME280;32220;49.808;9.968;2022-08-01T06:53:34;98935.63;;;27.23;47.74
46506;BME280;32220;49.808;9.968;2022-08-01T06:56:02;98941.78;;;27.38;47.95
46506;BME280;32220;49.808;9.968;2022-08-01T06:58:30;98936.25;;;27.60;47.50
46506;BME280;32220;49.808;9.968;2022-08-01T07:00:57;98942.22;;;27.83;46.94
46506;BME280;32220;49.808;9.968;2022-08-01T07:03:25;98946.81;;;27.82;46.66
46506;BME280;32220;49.808;9.968;2022-08-01T07:05:54;98950.09;;;27.65;46.84
46506;BME280;32220;49.808;9.968;2022-08-01T07:08:22;98949.97;;;27.45;47.08
46506;BME280;32220;49.808;9.968;2022-08-01T07:10:50;98947.78;;;27.27;47.37
46506;BME280;32220;49.808;9.968;2022-08-01T07:13:17;98947.72;;;27.14;47.66
46506;BME280;32220;49.808;9.968;2022-08-01T07:15:47;98944.75;;;27.09;47.94
46506;BME280;32220;49.808;9.968;2022-08-01T07:18:14;98940.97;;;27.10;47.35
46506;BME280;32220;49.808;9.968;2022-08-01T07:20:42;98938.53;;;27.15;47.51
46506;BME280;32220;49.808;9.968;2022-08-01T07:23:13;98943.13;;;27.21;47.39
46506;BME280;32220;49.808;9.968;2022-08-01T07:25:41;98932.66;;;27.52;47.09
46506;BME280;32220;49.808;9.968;2022-08-01T07:28:09;98945.31;;;28.34;46.02
46506;BME280;32220;49.808;9.968;2022-08-01T07:30:37;98954.72;;;28.32;45.06
46506;BME280;32220;49.808;9.968;2022-08-01T07:33:04;98952.84;;;28.26;45.05
46506;BME280;32220;49.808;9.968;2022-08-01T07:35:32;98948.19;;;28.19;45.49
46506;BME280;32220;49.808;9.968;2022-08-01T07:38:00;98954.09;;;28.36;44.88
46506;BME280;32220;49.808;9.968;2022-08-01T07:40:30;98959.19;;;28.99;44.06
46506;BME280;32220;49.808;9.968;2022-08-01T07:42:58;98959.53;;;29.48;43.81
46506;BME280;32220;49.808;9.968;2022-08-01T07:45:26;98963.59;;;29.84;42.87
46506;BME280;32220;49.808;9.968;2022-08-01T07:47:54;98964.34;;;30.11;41.97
46506;BME280;32220;49.808;9.968;2022-08-01T07:50:21;98967.03;;;30.49;41.16
46506;BME280;32220;49.808;9.968;2022-08-01T07:52:49;98966.97;;;30.62;40.68
46506;BME280;32220;49.808;9.968;2022-08-01T07:55:17;98972.56;;;30.98;39.97
46506;BME280;32220;49.808;9.968;2022-08-01T07:57:46;98979.94;;;31.23;39.45
46506;BME280;32220;49.808;9.968;2022-08-01T08:00:15;98968.91;;;31.29;39.25
46506;BME280;32220;49.808;9.968;2022-08-01T08:02:43;98970.16;;;31.08;39.64
46506;BME280;32220;49.808;9.968;2022-08-01T08:05:11;98972.34;;;31.00;39.84
46506;BME280;32220;49.808;9.968;2022-08-01T08:07:39;98981.53;;;30.81;40.17
46506;BME280;32220;49.808;9.968;2022-08-01T08:10:08;98972.47;;;30.55;40.20
46506;BME280;32220;49.808;9.968;2022-08-01T08:12:36;98954.78;;;30.26;40.53
46506;BME280;32220;49.808;9.968;2022-08-01T08:15:06;98966.47;;;30.71;39.97
46506;BME280;32220;49.808;9.968;2022-08-01T08:17:34;98980.91;;;31.90;38.13
46506;BME280;32220;49.808;9.968;2022-08-01T08:20:03;98986.81;;;32.23;37.23
46506;BME280;32220;49.808;9.968;2022-08-01T08:22:31;98983.72;;;31.83;37.58
46506;BME280;32220;49.808;9.968;2022-08-01T08:24:59;98982.38;;;31.31;37.45
46506;BME280;32220;49.808;9.968;2022-08-01T08:27:27;98977.31;;;30.85;37.78
46506;BME280;32220;49.808;9.968;2022-08-01T08:29:55;98978.59;;;30.51;38.81
46506;BME280;32220;49.808;9.968;2022-08-01T08:32:24;98961.22;;;30.39;39.15
46506;BME280;32220;49.808;9.968;2022-08-01T08:34:52;98983.03;;;31.88;37.37
46506;BME280;32220;49.808;9.968;2022-08-01T08:37:20;98994.19;;;33.41;35.12
46506;BME280;32220;49.808;9.968;2022-08-01T08:39:47;98991.81;;;33.21;34.59
46506;BME280;32220;49.808;9.968;2022-08-01T08:42:15;98985.59;;;32.61;35.31
46506;BME280;32220;49.808;9.968;2022-08-01T08:44:43;98975.59;;;32.06;36.05
46506;BME280;32220;49.808;9.968;2022-08-01T08:47:12;98980.69;;;31.73;36.65
46506;BME280;32220;49.808;9.968;2022-08-01T08:49:43;98982.09;;;31.39;37.29
46506;BME280;32220;49.808;9.968;2022-08-01T08:52:12;98975.00;;;31.06;37.93
46506;BME280;32220;49.808;9.968;2022-08-01T08:54:41;98970.53;;;31.37;37.75
46506;BME280;32220;49.808;9.968;2022-08-01T08:57:10;98991.59;;;34.09;33.86
46506;BME280;32220;49.808;9.968;2022-08-01T08:59:43;99000.94;;;35.87;31.15
46506;BME280;32220;49.808;9.968;2022-08-01T09:02:11;99005.66;;;36.57;29.88
46506;BME280;32220;49.808;9.968;2022-08-01T09:04:39;99017.13;;;37.03;28.55
46506;BME280;32220;49.808;9.968;2022-08-01T09:07:09;99016.25;;;37.29;28.77
46506;BME280;32220;49.808;9.968;2022-08-01T09:09:37;99010.28;;;36.79;28.91
46506;BME280;32220;49.808;9.968;2022-08-01T09:12:05;99013.91;;;36.09;29.49
46506;BME280;32220;49.808;9.968;2022-08-01T09:14:33;99013.81;;;35.26;30.46
46506;BME280;32220;49.808;9.968;2022-08-01T09:17:03;99009.53;;;34.40;31.54
46506;BME280;32220;49.808;9.968;2022-08-01T09:19:36;99018.53;;;33.72;32.54
46506;BME280;32220;49.808;9.968;2022-08-01T09:22:06;99002.19;;;33.19;33.22
46506;BME280;32220;49.808;9.968;2022-08-01T09:24:36;99001.16;;;32.78;33.73
46506;BME280;32220;49.808;9.968;2022-08-01T09:27:16;98994.75;;;32.55;34.56
46506;BME280;32220;49.808;9.968;2022-08-01T09:29:44;98986.28;;;32.44;34.76
46506;BME280;32220;49.808;9.968;2022-08-01T09:32:12;98957.94;;;32.51;34.78
46506;BME280;32220;49.808;9.968;2022-08-01T09:34:40;99003.50;;;33.40;34.29
46506;BME280;32220;49.808;9.968;2022-08-01T09:37:08;99000.50;;;34.28;32.77
46506;BME280;32220;49.808;9.968;2022-08-01T09:39:37;99005.97;;;34.85;31.94
46506;BME280;32220;49.808;9.968;2022-08-01T09:42:22;99003.47;;;35.00;31.55
46506;BME280;32220;49.808;9.968;2022-08-01T09:44:50;99014.31;;;34.90;31.47
46506;BME280;32220;49.808;9.968;2022-08-01T09:47:18;99007.72;;;34.63;32.04
46506;BME280;32220;49.808;9.968;2022-08-01T09:49:53;99010.91;;;34.54;32.01
46506;BME280;32220;49.808;9.968;2022-08-01T09:52:22;99006.38;;;35.44;31.34
46506;BME280;32220;49.808;9.968;2022-08-01T09:54:54;99036.84;;;36.58;29.38
46506;BME280;32220;49.808;9.968;2022-08-01T09:57:22;99029.81;;;36.23;29.85
46506;BME280;32220;49.808;9.968;2022-08-01T09:59:51;99028.41;;;35.60;30.09
46506;BME280;32220;49.808;9.968;2022-08-01T10:02:31;99019.91;;;34.95;30.90
46506;BME280;32220;49.808;9.968;2022-08-01T10:05:00;99018.13;;;34.44;31.58
46506;BME280;32220;49.808;9.968;2022-08-01T10:07:28;99018.72;;;34.06;32.07
46506;BME280;32220;49.808;9.968;2022-08-01T10:10:09;99012.09;;;33.78;32.71
46506;BME280;32220;49.808;9.968;2022-08-01T10:12:37;99009.69;;;33.94;32.83
46506;BME280;32220;49.808;9.968;2022-08-01T10:15:08;99007.13;;;34.04;32.65
46506;BME280;32220;49.808;9.968;2022-08-01T10:17:38;99008.97;;;33.98;32.37
46506;BME280;32220;49.808;9.968;2022-08-01T10:20:07;99006.84;;;34.17;31.55
46506;BME280;32220;49.808;9.968;2022-08-01T10:22:36;99022.72;;;37.13;28.70
46506;BME280;32220;49.808;9.968;2022-08-01T10:25:07;99031.94;;;39.01;26.27
46506;BME280;32220;49.808;9.968;2022-08-01T10:27:36;99019.19;;;39.05;26.02
46506;BME280;32220;49.808;9.968;2022-08-01T10:30:06;99039.28;;;38.44;26.08
46506;BME280;32220;49.808;9.968;2022-08-01T10:32:35;99022.81;;;37.18;27.36
46506;BME280;32220;49.808;9.968;2022-08-01T10:35:05;99014.66;;;36.26;28.73
46506;BME280;32220;49.808;9.968;2022-08-01T10:37:33;99007.84;;;35.68;29.57
46506;BME280;32220;49.808;9.968;2022-08-01T10:40:02;99007.03;;;35.89;29.65
46506;BME280;32220;49.808;9.968;2022-08-01T10:42:33;99004.22;;;35.84;29.49
46506;BME280;32220;49.808;9.968;2022-08-01T10:45:02;98995.75;;;35.52;29.85
46506;BME280;32220;49.808;9.968;2022-08-01T10:47:35;99001.72;;;35.27;30.35
46506;BME280;32220;49.808;9.968;2022-08-01T10:50:11;99003.06;;;35.08;30.42
46506;BME280;32220;49.808;9.968;2022-08-01T10:52:41;98992.63;;;35.10;30.60
46506;BME280;32220;49.808;9.968;2022-08-01T10:55:08;98987.84;;;36.43;29.81
46506;BME280;32220;49.808;9.968;2022-08-01T10:57:45;99006.28;;;38.18;27.88
46506;BME280;32220;49.808;9.968;2022-08-01T11:00:17;99015.53;;;39.60;25.36
46506;BME280;32220;49.808;9.968;2022-08-01T11:02:57;99026.97;;;40.23;24.79
46506;BME280;32220;49.808;9.968;2022-08-01T11:05:28;99021.53;;;40.03;24.36
46506;BME280;32220;49.808;9.968;2022-08-01T11:07:59;99018.63;;;38.98;25.17
46506;BME280;32220;49.808;9.968;2022-08-01T11:10:35;99017.16;;;37.87;26.25
46506;BME280;32220;49.808;9.968;2022-08-01T11:13:06;99010.50;;;37.04;27.23
46506;BME280;32220;49.808;9.968;2022-08-01T11:15:35;99004.56;;;36.37;27.82
46506;BME280;32220;49.808;9.968;2022-08-01T11:18:04;98996.59;;;35.91;28.78
46506;BME280;32220;49.808;9.968;2022-08-01T11:20:56;98992.28;;;36.71;28.23
46506;BME280;32220;49.808;9.968;2022-08-01T11:23:25;99002.31;;;38.03;26.37
46506;BME280;32220;49.808;9.968;2022-08-01T11:26:12;99002.78;;;38.58;25.89
46506;BME280;32220;49.808;9.968;2022-08-01T11:28:43;99005.59;;;38.00;26.07
46506;BME280;32220;49.808;9.968;2022-08-01T11:31:29;98998.88;;;37.76;25.77
46506;BME280;32220;49.808;9.968;2022-08-01T11:33:58;98995.66;;;37.94;25.40
46506;BME280;32220;49.808;9.968;2022-08-01T11:36:26;98985.69;;;37.98;25.48
46506;BME280;32220;49.808;9.968;2022-08-01T11:39:13;99001.44;;;37.98;25.29
46506;BME280;32220;49.808;9.968;2022-08-01T11:41:43;98989.88;;;37.59;25.62
46506;BME280;32220;49.808;9.968;2022-08-01T11:44:18;98990.06;;;37.05;26.12
46506;BME280;32220;49.808;9.968;2022-08-01T11:46:54;98983.91;;;36.66;26.70
46506;BME280;32220;49.808;9.968;2022-08-01T11:49:43;98977.25;;;36.62;27.25
46506;BME280;32220;49.808;9.968;2022-08-01T11:52:13;98978.75;;;36.69;27.21
46506;BME280;32220;49.808;9.968;2022-08-01T11:54:44;98979.25;;;37.35;26.77
46506;BME280;32220;49.808;9.968;2022-08-01T11:57:14;98980.97;;;37.99;25.98
46506;BME280;32220;49.808;9.968;2022-08-01T11:59:45;98980.66;;;39.24;24.65
46506;BME280;32220;49.808;9.968;2022-08-01T12:02:18;98979.25;;;39.46;24.32
46506;BME280;32220;49.808;9.968;2022-08-01T12:04:55;98989.28;;;39.07;24.42
46506;BME280;32220;49.808;9.968;2022-08-01T12:07:24;98985.91;;;38.64;24.66
46506;BME280;32220;49.808;9.968;2022-08-01T12:09:58;98980.25;;;38.14;25.03
46506;BME280;32220;49.808;9.968;2022-08-01T12:12:27;98981.13;;;37.72;25.38
46506;BME280;32220;49.808;9.968;2022-08-01T12:14:58;98980.16;;;37.46;25.88
46506;BME280;32220;49.808;9.968;2022-08-01T12:17:32;98979.19;;;37.20;26.01
46506;BME280;32220;49.808;9.968;2022-08-01T12:20:01;98971.19;;;36.92;26.23
46506;BME280;32220;49.808;9.968;2022-08-01T12:22:30;98972.16;;;36.76;26.37
46506;BME280;32220;49.808;9.968;2022-08-01T12:25:05;98974.00;;;38.74;25.27
46506;BME280;32220;49.808;9.968;2022-08-01T12:27:34;98989.28;;;41.63;22.12
46506;BME280;32220;49.808;9.968;2022-08-01T12:30:06;99005.13;;;43.83;19.77
46506;BME280;32220;49.808;9.968;2022-08-01T12:32:35;98993.25;;;43.63;19.51
46506;BME280;32220;49.808;9.968;2022-08-01T12:35:05;98990.53;;;42.18;20.49
46506;BME280;32220;49.808;9.968;2022-08-01T12:37:35;98970.84;;;40.80;21.83
46506;BME280;32220;49.808;9.968;2022-08-01T12:40:10;98968.56;;;39.94;22.88
46506;BME280;32220;49.808;9.968;2022-08-01T12:42:39;98977.31;;;41.86;21.67
46506;BME280;32220;49.808;9.968;2022-08-01T12:45:12;98989.38;;;44.42;19.53
46506;BME280;32220;49.808;9.968;2022-08-01T12:47:42;98993.63;;;45.82;18.17
46506;BME280;32220;49.808;9.968;2022-08-01T12:50:12;98985.97;;;44.67;18.63
46506;BME280;32220;49.808;9.968;2022-08-01T12:52:42;98988.41;;;43.23;19.56
46506;BME280;32220;49.808;9.968;2022-08-01T12:55:12;98969.69;;;41.92;20.37
46506;BME280;32220;49.808;9.968;2022-08-01T12:57:41;98985.94;;;41.03;21.28
46506;BME280;32220;49.808;9.968;2022-08-01T13:00:18;98967.31;;;40.20;22.40
46506;BME280;32220;49.808;9.968;2022-08-01T13:02:48;98968.44;;;39.40;23.00
46506;BME280;32220;49.808;9.968;2022-08-01T13:05:17;98949.09;;;38.74;23.85
46506;BME280;32220;49.808;9.968;2022-08-01T13:07:47;98962.84;;;38.18;23.88
46506;BME280;32220;49.808;9.968;2022-08-01T13:10:25;98946.53;;;39.38;23.25
46506;BME280;32220;49.808;9.968;2022-08-01T13:12:54;98972.56;;;41.05;21.59
46506;BME280;32220;49.808;9.968;2022-08-01T13:15:27;98973.88;;;40.84;21.32